Weather at Oakes Field-Nassau

Public forecast

Using degrees Celsius for public forecast. Weather courtesy of forecast.io.

Closest aviation weather report (METAR) to Oakes Field-Nassau

Closest report is Lynden Pindling International Airport, 6.2 nm (11.6 km) W. Retrieved 2021/06/20 04:00 UTC (14 minutes ago):

MYNN 200400Z 16009KT 9999 SCT018 BKN040 29/25 A3011

Closest aviation forecast (TAF) to Oakes Field-Nassau

Closest forecast is Lynden Pindling International Airport, 6.2 nm (11.6 km) W. Retrieved 2021-06-20 00:21 UTC (4 hours ago):

TAF MYNN 192200Z 2000/2024 1010KT 9999 SCT020 SCT120 BKN250